createdAt,value
2017-05-28T09:57:09.157Z,7536
2017-05-28T09:58:18.078Z,7880
2017-05-28T09:59:26.987Z,8100
2017-05-28T10:00:36.212Z,8928
2017-05-28T10:01:45.810Z,8164
2017-05-28T10:02:55.361Z,7360
2017-05-28T10:04:04.587Z,7224
2017-05-28T10:05:13.485Z,6632
2017-05-28T10:06:22.711Z,6716
2017-05-28T10:07:31.877Z,6780
2017-05-28T10:08:41.189Z,6204
2017-05-28T10:09:50.416Z,6268
2017-05-28T10:10:59.965Z,6276
2017-05-28T10:12:09.514Z,6356
2017-05-28T10:13:18.791Z,6352
2017-05-28T10:14:28.343Z,6408
2017-05-28T10:15:37.888Z,6372
2017-05-28T10:16:46.799Z,6260
2017-05-28T10:17:56.360Z,6236
2017-05-28T10:19:05.964Z,6556
2017-05-28T10:20:14.865Z,7112
2017-05-28T10:21:24.099Z,7092
2017-05-28T10:22:33.002Z,7004
2017-05-28T10:23:42.562Z,7376
2017-05-28T10:24:52.216Z,7148
2017-05-28T10:26:01.768Z,7304
2017-05-28T10:27:11.315Z,7760
2017-05-28T10:28:20.213Z,7708
2017-05-28T10:29:29.451Z,7488
2017-05-28T10:30:38.822Z,7472
2017-05-28T10:31:48.474Z,7348
2017-05-28T10:32:57.819Z,7592
2017-05-28T10:34:07.056Z,7392
2017-05-28T10:35:16.294Z,7468
2017-05-28T10:36:25.402Z,7240
2017-05-28T10:37:34.638Z,7092
2017-05-28T10:38:43.873Z,7016
2017-05-28T10:39:53.112Z,6896
2017-05-28T10:41:02.350Z,6864
2017-05-28T10:42:11.307Z,6908
2017-05-28T10:43:20.272Z,6952
2017-05-28T10:44:29.504Z,6916
2017-05-28T10:45:38.418Z,6732
2017-05-28T10:46:47.662Z,6640
2017-05-28T10:47:57.207Z,6756
2017-05-28T10:49:06.438Z,6812
2017-05-28T10:50:15.675Z,6804
2017-05-28T10:51:24.575Z,6796
2017-05-28T10:52:33.473Z,6724
2017-05-28T10:53:43.350Z,6676
2017-05-28T10:54:52.252Z,6732
2017-05-28T10:56:01.481Z,7092
2017-05-28T10:57:10.492Z,7164
2017-05-28T10:58:19.396Z,7200
2017-05-28T10:59:28.452Z,7420
2017-05-28T11:00:38.004Z,7500
2017-05-28T11:01:46.907Z,7624
2017-05-28T11:02:55.837Z,7740
2017-05-28T11:04:05.396Z,8076
2017-05-28T11:05:14.395Z,8220
2017-05-28T11:06:23.298Z,8180
2017-05-28T11:07:32.846Z,8308
2017-05-28T11:08:41.748Z,8400
2017-05-28T11:09:50.974Z,9008
2017-05-28T11:11:00.198Z,9236
2017-05-28T11:12:09.107Z,9032
2017-05-28T11:13:18.332Z,9112
2017-05-28T11:14:27.551Z,9092
2017-05-28T11:15:36.455Z,9264
2017-05-28T11:16:45.827Z,9224
2017-05-28T11:17:55.059Z,8976
2017-05-28T11:19:04.610Z,8828
2017-05-28T11:20:13.838Z,8796
2017-05-28T11:21:22.742Z,8764
2017-05-28T11:22:32.069Z,8904
2017-05-28T11:23:40.971Z,9048
2017-05-28T11:24:50.595Z,9452
2017-05-28T11:25:59.500Z,9548
2017-05-28T11:27:09.059Z,9296
2017-05-28T11:28:18.860Z,9108
2017-05-28T11:29:28.086Z,9132
2017-05-28T11:30:37.642Z,9052
2017-05-28T11:31:47.190Z,9184
2017-05-28T11:32:56.418Z,9260
2017-05-28T11:34:05.470Z,9368
2017-05-28T11:35:15.089Z,9464
2017-05-28T11:36:24.320Z,9392
2017-05-28T11:37:33.554Z,9356
2017-05-28T11:38:42.779Z,9276
2017-05-28T11:39:51.761Z,9152
2017-05-28T11:41:00.738Z,9028
2017-05-28T11:42:09.695Z,8904
2017-05-28T11:43:18.620Z,9108
2017-05-28T11:44:27.845Z,9196
2017-05-28T11:45:38.015Z,9124
2017-05-28T11:46:46.924Z,9300
2017-05-28T11:47:56.169Z,9544
2017-05-28T11:49:05.100Z,9680
2017-05-28T11:50:14.681Z,10108
2017-05-28T11:51:23.675Z,10812
2017-05-28T11:52:32.962Z,36576
2017-05-28T11:53:42.855Z,80992
2017-05-28T11:54:52.417Z,83392
2017-05-28T11:56:01.325Z,83872
2017-05-28T11:57:10.661Z,79744
2017-05-28T11:58:19.893Z,80800
2017-05-28T11:59:28.801Z,81632
2017-05-28T12:00:37.807Z,86784
2017-05-28T12:01:46.743Z,84640
2017-05-28T12:02:56.124Z,83680
2017-05-28T12:04:05.040Z,86784
2017-05-28T12:05:13.948Z,82688
2017-05-28T12:06:22.861Z,80288
2017-05-28T12:07:31.768Z,86528
2017-05-28T12:08:41.101Z,93888
2017-05-28T12:09:50.667Z,96736
2017-05-28T12:10:59.900Z,89696
2017-05-28T12:12:09.160Z,83776
2017-05-28T12:13:18.074Z,50400
2017-05-28T12:14:27.142Z,88992
2017-05-28T12:15:36.379Z,94720
2017-05-28T12:16:45.286Z,96416
2017-05-28T12:17:54.523Z,88544
2017-05-28T12:19:03.432Z,71552
2017-05-28T12:20:12.747Z,17344
2017-05-28T12:21:21.661Z,64288
2017-05-28T12:22:30.574Z,76032
2017-05-28T12:23:39.819Z,35296
2017-05-28T12:24:49.060Z,71392
2017-05-28T12:25:59.069Z,42496
2017-05-28T12:27:08.234Z,71232
2017-05-28T12:28:17.211Z,29184
2017-05-28T12:29:26.776Z,64576
2017-05-28T12:30:36.015Z,66208
2017-05-28T12:31:45.408Z,61152
2017-05-28T12:32:54.652Z,48096
2017-05-28T12:34:03.898Z,42272
2017-05-28T12:35:13.466Z,48256
2017-05-28T12:36:22.383Z,55040
2017-05-28T12:37:31.445Z,57280
2017-05-28T12:38:40.684Z,64992
2017-05-28T12:39:50.249Z,69856
2017-05-28T12:40:59.168Z,32768
2017-05-28T12:42:08.091Z,90560
2017-05-28T12:43:17.003Z,94304
2017-05-28T12:44:26.573Z,100768
2017-05-28T12:45:36.130Z,96992
2017-05-28T12:46:45.704Z,94208
2017-05-28T12:47:54.621Z,84704
2017-05-28T12:49:03.696Z,77536
2017-05-28T12:50:12.606Z,48416
2017-05-28T12:51:21.843Z,85536
2017-05-28T12:52:30.811Z,81216
2017-05-28T12:53:39.732Z,84256
2017-05-28T12:54:48.978Z,95264
2017-05-28T12:55:58.219Z,92832
2017-05-28T12:57:07.474Z,91232
2017-05-28T12:58:16.715Z,88672
2017-05-28T12:59:26.290Z,60640
2017-05-28T13:00:35.853Z,93248
2017-05-28T13:01:45.427Z,84832
2017-05-28T13:02:54.668Z,88608
2017-05-28T13:04:03.905Z,88800
2017-05-28T13:05:12.822Z,85280
2017-05-28T13:06:22.167Z,87456
2017-05-28T13:07:31.080Z,88512
2017-05-28T13:08:40.392Z,85760
2017-05-28T13:09:49.637Z,89024
2017-05-28T13:10:58.555Z,90912
2017-05-28T13:12:07.472Z,91584
2017-05-28T13:13:17.042Z,94144
2017-05-28T13:14:26.289Z,90688
2017-05-28T13:15:35.208Z,86304
2017-05-28T13:16:44.123Z,88032
2017-05-28T13:17:53.844Z,83456
2017-05-28T13:19:03.092Z,79264
2017-05-28T13:20:12.334Z,84992
2017-05-28T13:21:21.251Z,83424
2017-05-28T13:22:30.172Z,79968
2017-05-28T13:23:39.561Z,80896
2017-05-28T13:24:49.132Z,84288
2017-05-28T13:25:58.703Z,89696
2017-05-28T13:27:07.621Z,92256
2017-05-28T13:28:16.864Z,86688
2017-05-28T13:29:26.258Z,81696
2017-05-28T13:30:35.174Z,80544
2017-05-28T13:31:44.752Z,81888
2017-05-28T13:32:54.005Z,82144
2017-05-28T13:34:03.708Z,74528
2017-05-28T13:35:12.828Z,76320
2017-05-28T13:36:22.070Z,72640
2017-05-28T13:37:30.989Z,71616
2017-05-28T13:38:39.922Z,74080
2017-05-28T13:39:49.174Z,79072
2017-05-28T13:40:58.894Z,79232
2017-05-28T13:42:08.169Z,78144
2017-05-28T13:43:17.415Z,79104
2017-05-28T13:44:26.988Z,80960
2017-05-28T13:45:36.288Z,72864
2017-05-28T13:46:45.678Z,70560
2017-05-28T13:47:55.018Z,75328
2017-05-28T13:49:04.389Z,77344
2017-05-28T13:50:14.086Z,75488
2017-05-28T13:51:23.101Z,79808
2017-05-28T13:52:32.857Z,78848
2017-05-28T13:53:41.930Z,74304
2017-05-28T13:54:51.323Z,76320
2017-05-28T13:56:00.994Z,77728
2017-05-28T13:57:10.207Z,74496
2017-05-28T13:58:49.099Z,76384
2017-05-28T13:59:58.393Z,76896
2017-05-28T14:01:07.650Z,74432
2017-05-28T14:02:17.390Z,77280
2017-05-28T14:03:26.859Z,73664
2017-05-28T14:04:36.254Z,68032
2017-05-28T14:05:45.632Z,62624
2017-05-28T14:06:54.981Z,67200
2017-05-28T14:08:04.234Z,63936
2017-05-28T14:09:14.054Z,60512
2017-05-28T14:10:23.432Z,62656
2017-05-28T14:11:32.485Z,68320
2017-05-28T14:12:42.203Z,66688
2017-05-28T14:13:52.602Z,71296
2017-05-28T14:15:02.647Z,76896
2017-05-28T14:16:11.573Z,74336
2017-05-28T14:17:20.820Z,75776
2017-05-28T14:18:30.396Z,77952
2017-05-28T14:19:39.322Z,77152
2017-05-28T14:20:48.720Z,54080
2017-05-28T14:21:57.966Z,27456
2017-05-28T14:23:07.210Z,22272
2017-05-28T14:24:17.143Z,37280
2017-05-28T14:25:26.386Z,74560
2017-05-28T14:26:35.624Z,75200
2017-05-28T14:27:44.543Z,70624
2017-05-28T14:28:53.784Z,66144
2017-05-28T14:30:02.705Z,64448
2017-05-28T14:31:12.279Z,72192
2017-05-28T14:32:21.668Z,62656
2017-05-28T14:33:31.235Z,63008
2017-05-28T14:34:40.474Z,68736
2017-05-28T14:35:49.717Z,68608
2017-05-28T14:36:58.635Z,70176
2017-05-28T14:38:08.281Z,63488
2017-05-28T14:39:17.850Z,76448
2017-05-28T14:40:26.770Z,81216
2017-05-28T14:41:36.011Z,76736
2017-05-28T14:42:45.255Z,77696
2017-05-28T14:43:54.173Z,77952
2017-05-28T14:45:03.435Z,79072
2017-05-28T14:46:12.671Z,84672
2017-05-28T14:47:21.589Z,82144
2017-05-28T14:48:31.161Z,82176
2017-05-28T14:49:40.238Z,79392
2017-05-28T14:50:49.163Z,74880
2017-05-28T14:51:58.082Z,70976
2017-05-28T14:53:07.005Z,70688
2017-05-28T14:54:16.250Z,70784
2017-05-28T14:55:25.321Z,69664
2017-05-28T14:56:34.564Z,15580
2017-05-28T14:57:43.816Z,67584
2017-05-28T14:58:53.065Z,63392
2017-05-28T15:00:02.364Z,63456
2017-05-28T15:01:11.862Z,67552
2017-05-28T15:02:20.860Z,76288
2017-05-28T15:03:30.165Z,87264
2017-05-28T15:04:39.780Z,93056
2017-05-28T15:05:49.042Z,82944
2017-05-28T15:06:58.155Z,73184
2017-05-28T15:08:07.721Z,72192
2017-05-28T15:09:16.643Z,17024
2017-05-28T15:10:25.566Z,65568
2017-05-28T15:11:34.816Z,77440
2017-05-28T15:12:43.884Z,75168
2017-05-28T15:13:53.777Z,70464
2017-05-28T15:15:03.023Z,67808
2017-05-28T15:16:12.271Z,65504
2017-05-28T15:17:22.094Z,64064
2017-05-28T15:18:31.237Z,64928
2017-05-28T15:19:40.489Z,62784
2017-05-28T15:20:49.735Z,60608
2017-05-28T15:21:58.712Z,59296
2017-05-28T15:23:07.954Z,58848
2017-05-28T15:24:16.877Z,63808
2017-05-28T15:25:26.124Z,62208
2017-05-28T15:26:35.694Z,60320
2017-05-28T15:27:45.269Z,66816
2017-05-28T15:28:54.852Z,68992
2017-05-28T15:30:04.084Z,66848
2017-05-28T15:31:13.651Z,62176
2017-05-28T15:32:23.218Z,59072
2017-05-28T15:33:32.143Z,58624
2017-05-28T15:34:41.087Z,55424
2017-05-28T15:35:50.750Z,54880
2017-05-28T15:37:00.522Z,60256
2017-05-28T15:38:10.088Z,57312
2017-05-28T15:39:19.381Z,58400
2017-05-28T15:40:28.300Z,62176
2017-05-28T15:41:37.543Z,65024
2017-05-28T15:42:46.794Z,65760
2017-05-28T15:43:56.035Z,64608
2017-05-28T15:45:04.964Z,63744
2017-05-28T15:46:13.883Z,64608
2017-05-28T15:47:23.280Z,64000
2017-05-28T15:48:32.195Z,61216
2017-05-28T15:49:41.117Z,56416
2017-05-28T15:50:50.363Z,61568
2017-05-28T15:51:59.280Z,60224
2017-05-28T15:53:08.252Z,56864
2017-05-28T15:54:17.228Z,50912
2017-05-28T15:55:26.796Z,47008
2017-05-28T15:56:36.365Z,50144
2017-05-28T15:57:45.933Z,47168
2017-05-28T15:58:55.003Z,44096
2017-05-28T16:00:04.576Z,41632
2017-05-28T16:01:13.817Z,40192
2017-05-28T16:02:22.743Z,36608
2017-05-28T16:03:31.988Z,30464
2017-05-28T16:04:41.285Z,23904
2017-05-28T16:05:50.866Z,22432
2017-05-28T16:07:00.108Z,24800
2017-05-28T16:08:09.025Z,22240
2017-05-28T16:09:17.950Z,16448
2017-05-28T16:10:27.022Z,13128
2017-05-28T16:11:36.265Z,11396
2017-05-28T16:12:45.511Z,10304
2017-05-28T16:13:54.762Z,9672
2017-05-28T16:15:04.338Z,9792
2017-05-28T16:16:13.355Z,9524
2017-05-28T16:17:22.597Z,8560
2017-05-28T16:18:31.838Z,9740
2017-05-28T16:19:41.400Z,8964
2017-05-28T16:20:50.325Z,8260
2017-05-28T16:21:59.392Z,9604
2017-05-28T16:23:08.310Z,9476
2017-05-28T16:24:17.550Z,10004
2017-05-28T16:25:26.470Z,10000
2017-05-28T16:26:35.709Z,10244
2017-05-28T16:27:45.604Z,10208
2017-05-28T16:28:54.528Z,9832
2017-05-28T16:30:03.782Z,9612
2017-05-28T16:31:12.696Z,9472
2017-05-28T16:32:21.608Z,9588
2017-05-28T16:33:30.820Z,9460
2017-05-28T16:34:40.059Z,9100
2017-05-28T16:35:49.390Z,9288
2017-05-28T16:36:58.378Z,9028
2017-05-28T16:38:07.629Z,8928
2017-05-28T16:39:17.021Z,8776
2017-05-28T16:40:25.939Z,8772
2017-05-28T16:41:35.178Z,8508
2017-05-28T16:42:44.115Z,8224
2017-05-28T16:43:53.387Z,8364
2017-05-28T16:45:02.453Z,8324
2017-05-28T16:46:11.368Z,8008
2017-05-28T16:47:20.612Z,8016
2017-05-28T16:48:30.505Z,8124
2017-05-28T16:49:39.744Z,8132
2017-05-28T16:50:48.659Z,8048
2017-05-28T16:51:58.776Z,7436
2017-05-28T16:53:08.397Z,6900
2017-05-28T16:54:17.315Z,7192
2017-05-28T16:55:26.279Z,7052
2017-05-28T16:56:35.225Z,6976
2017-05-28T16:57:44.921Z,6668
2017-05-28T16:58:54.175Z,6708
2017-05-28T17:00:03.755Z,6600
2017-05-28T17:01:12.669Z,6544
2017-05-28T17:02:21.909Z,6400
2017-05-28T17:03:30.820Z,6400
2017-05-28T17:04:40.386Z,6260
2017-05-28T17:05:49.293Z,6240
2017-05-28T17:06:58.205Z,6236
2017-05-28T17:08:07.453Z,6108
2017-05-28T17:09:16.364Z,5984
2017-05-28T17:10:25.275Z,6008
2017-05-28T17:11:34.183Z,5876
2017-05-28T17:12:43.821Z,5860
2017-05-28T17:13:53.058Z,5792
2017-05-28T17:15:02.294Z,5804
2017-05-28T17:16:11.866Z,5716
2017-05-28T17:17:21.110Z,5652
2017-05-28T17:18:30.020Z,5552
2017-05-28T17:19:38.939Z,5568
2017-05-28T17:20:48.172Z,5604
2017-05-28T17:21:57.584Z,5600
2017-05-28T17:23:07.165Z,5588
2017-05-28T17:24:16.079Z,5516
2017-05-28T17:25:25.321Z,5468
2017-05-28T17:26:34.561Z,5424
2017-05-28T17:27:44.387Z,5264
2017-05-28T17:28:53.948Z,5220
2017-05-28T17:30:04.160Z,5244
2017-05-28T17:31:13.719Z,5160
2017-05-28T17:32:22.951Z,5204
2017-05-28T17:33:32.346Z,5128
2017-05-28T17:34:41.265Z,5008
2017-05-28T17:35:50.828Z,4768
2017-05-28T17:37:00.714Z,4652
2017-05-28T17:38:09.952Z,4664
2017-05-28T17:39:19.109Z,4604
2017-05-28T17:40:28.024Z,4648
2017-05-28T17:41:37.532Z,4404
2017-05-28T17:42:46.447Z,4088
2017-05-28T17:43:55.682Z,3996
2017-05-28T17:45:05.331Z,3944
2017-05-28T17:46:14.237Z,3624
2017-05-28T17:47:23.466Z,3460
2017-05-28T17:48:32.699Z,3064
2017-05-28T17:49:42.264Z,2884
2017-05-28T17:50:51.769Z,2732
2017-05-28T17:52:00.682Z,2548
2017-05-28T17:53:09.595Z,2456
2017-05-28T17:54:18.526Z,2376
2017-05-28T17:55:27.435Z,2256
2017-05-28T17:56:36.646Z,2040
2017-05-28T17:57:45.891Z,1912
2017-05-28T17:58:54.814Z,1828
2017-05-28T18:00:04.380Z,1716
2017-05-28T18:01:13.288Z,1664
2017-05-28T18:02:22.620Z,1560
2017-05-28T18:03:31.854Z,1508
2017-05-28T18:04:41.405Z,1452
2017-05-28T18:05:50.705Z,1416
2017-05-28T18:06:59.937Z,1384
2017-05-28T18:08:08.854Z,1368
2017-05-28T18:09:18.091Z,1380
2017-05-28T18:10:27.322Z,1392
2017-05-28T18:11:36.555Z,1360
2017-05-28T18:12:45.792Z,1332
2017-05-28T18:13:55.392Z,1312
2017-05-28T18:15:05.276Z,1312
2017-05-28T18:16:14.837Z,1312
2017-05-28T18:17:23.738Z,1300
2017-05-28T18:18:32.969Z,1284
2017-05-28T18:19:42.679Z,1244
2017-05-28T18:20:51.585Z,1212
2017-05-28T18:22:01.140Z,1196
2017-05-28T18:23:10.048Z,1180
2017-05-28T18:24:19.278Z,1164
2017-05-28T18:25:29.461Z,1148
2017-05-28T18:26:38.360Z,1152
2017-05-28T18:27:47.266Z,1152
2017-05-28T18:28:57.144Z,1148
2017-05-28T18:30:06.369Z,1136
2017-05-28T18:31:16.181Z,1124
2017-05-28T18:32:25.079Z,1112
2017-05-28T18:33:34.304Z,1096
2017-05-28T18:34:43.869Z,1084
2017-05-28T18:35:53.745Z,1076
2017-05-28T18:37:02.997Z,1072
2017-05-28T18:38:11.903Z,1076
2017-05-28T18:39:21.129Z,1076
2017-05-28T18:40:30.354Z,1080
2017-05-28T18:41:39.257Z,1084
2017-05-28T18:42:48.268Z,1104
2017-05-28T18:43:57.824Z,1124
2017-05-28T18:45:07.051Z,1144
2017-05-28T18:46:15.965Z,1152
2017-05-28T18:47:24.863Z,1152
2017-05-28T18:48:33.924Z,1144
2017-05-28T18:49:43.149Z,1140
2017-05-28T18:50:52.372Z,1140
2017-05-28T18:52:01.922Z,1144
2017-05-28T18:53:11.144Z,1164
2017-05-28T18:54:21.072Z,1172
2017-05-28T18:55:29.973Z,1168
2017-05-28T18:56:39.211Z,1152
2017-05-28T18:57:48.764Z,1140
2017-05-28T18:58:57.988Z,1116
2017-05-28T19:00:07.367Z,1084
2017-05-28T19:01:16.267Z,1060
2017-05-28T19:02:25.816Z,1036
2017-05-28T19:03:34.720Z,1012
2017-05-28T19:04:43.945Z,972
2017-05-28T19:05:53.696Z,916
2017-05-28T19:07:02.607Z,848
2017-05-28T19:08:11.836Z,764
2017-05-28T19:09:21.070Z,676
2017-05-28T19:10:30.297Z,604
2017-05-28T19:11:39.769Z,540
2017-05-28T19:12:48.675Z,492
2017-05-28T19:13:58.252Z,448
2017-05-28T19:15:07.152Z,416
2017-05-28T19:16:16.055Z,396
2017-05-28T19:17:25.631Z,380
2017-05-28T19:18:34.528Z,364
2017-05-28T19:19:43.753Z,352
2017-05-28T19:20:53.304Z,340
2017-05-28T19:22:02.531Z,328
2017-05-28T19:23:11.810Z,316
2017-05-28T19:24:21.033Z,300
2017-05-28T19:25:30.908Z,272
2017-05-28T19:26:39.808Z,240
2017-05-28T19:27:48.708Z,212
2017-05-28T19:28:58.081Z,184
2017-05-28T19:30:07.629Z,168
2017-05-28T19:31:16.533Z,156
2017-05-28T19:32:25.757Z,144
2017-05-28T19:33:34.658Z,136
2017-05-28T19:34:44.377Z,124
2017-05-28T19:35:53.600Z,108
2017-05-28T19:37:02.502Z,96
2017-05-28T19:38:11.734Z,88
2017-05-28T19:39:20.959Z,76
2017-05-28T19:40:30.281Z,68
2017-05-28T19:41:39.519Z,64
2017-05-28T19:42:49.086Z,60
2017-05-28T19:43:58.318Z,52
2017-05-28T19:45:07.870Z,48
2017-05-28T19:46:17.194Z,44
2017-05-28T19:47:26.092Z,36
2017-05-28T19:48:34.991Z,32
2017-05-28T19:49:43.894Z,28
2017-05-28T19:50:53.442Z,28
2017-05-28T19:52:02.772Z,24
2017-05-28T19:53:12.322Z,20
2017-05-28T19:54:21.223Z,20
2017-05-28T19:55:30.116Z,16
2017-05-28T19:56:39.340Z,16
2017-05-28T19:57:48.618Z,12
2017-05-28T19:58:58.166Z,12
2017-05-28T20:00:07.770Z,12
2017-05-28T20:01:16.665Z,8
2017-05-28T20:02:25.891Z,8
2017-05-28T20:03:35.541Z,4
2017-05-28T20:04:44.770Z,8
2017-05-28T20:05:53.990Z,4
2017-05-28T20:07:02.893Z,4
2017-05-28T20:08:11.793Z,4
2017-05-28T20:09:20.939Z,4
2017-05-28T20:10:29.838Z,4
2017-05-28T20:11:38.733Z,0
2017-05-28T20:12:47.962Z,4
2017-05-28T20:13:57.192Z,4
2017-05-28T20:15:06.467Z,0
2017-05-28T20:16:15.360Z,0
2017-05-28T20:17:24.595Z,0
2017-05-28T20:18:33.496Z,0
2017-05-28T20:19:42.719Z,0
2017-05-28T20:20:51.766Z,0
2017-05-28T20:22:00.986Z,0
2017-05-28T20:23:09.886Z,0
2017-05-28T20:24:18.785Z,0
2017-05-28T20:25:27.686Z,0
2017-05-28T20:26:37.066Z,0
2017-05-28T20:27:46.609Z,0
2017-05-28T20:28:55.507Z,0
2017-05-28T20:30:04.404Z,0
2017-05-28T20:31:13.306Z,0
2017-05-28T20:32:23.006Z,0
2017-05-28T20:33:31.899Z,0
2017-05-28T20:34:41.118Z,0
2017-05-28T20:35:50.018Z,0
2017-05-28T20:36:58.935Z,0
2017-05-28T20:38:07.980Z,0
2017-05-28T20:39:16.877Z,0
2017-05-28T20:40:26.746Z,0
2017-05-28T20:41:35.969Z,0
2017-05-28T20:42:45.520Z,0
2017-05-28T20:43:55.374Z,0
2017-05-28T20:45:04.927Z,0
2017-05-28T20:46:13.825Z,0
2017-05-28T20:47:23.047Z,0
2017-05-28T20:48:31.956Z,0
2017-05-28T20:49:41.658Z,0
2017-05-28T20:50:50.881Z,0
2017-05-28T20:51:59.776Z,0
2017-05-28T20:53:08.670Z,0
2017-05-28T20:54:17.573Z,0
2017-05-28T20:55:27.047Z,0
2017-05-28T20:56:35.941Z,0
2017-05-28T20:57:45.167Z,0
2017-05-28T20:58:54.121Z,0
2017-05-28T21:00:04.010Z,0
2017-05-28T21:01:13.213Z,0
2017-05-28T21:02:22.107Z,0
2017-05-28T21:03:31.329Z,0
2017-05-28T21:04:40.236Z,0
2017-05-28T21:05:49.457Z,0
2017-05-28T21:06:58.602Z,0
2017-05-28T21:08:07.826Z,0
2017-05-28T21:09:17.044Z,0
2017-05-28T21:10:25.945Z,0
2017-05-28T21:11:35.165Z,0
2017-05-28T21:12:44.435Z,0
2017-05-28T21:13:53.338Z,0
2017-05-28T21:15:02.887Z,0
2017-05-28T21:16:11.787Z,0
2017-05-28T21:17:20.686Z,0
2017-05-28T21:18:30.390Z,0
2017-05-28T21:19:39.283Z,0
2017-05-28T21:20:48.229Z,0
2017-05-28T21:21:57.460Z,0
2017-05-28T21:23:06.681Z,0
2017-05-28T21:24:16.227Z,0
2017-05-28T21:25:25.782Z,0
2017-05-28T21:26:35.002Z,0
2017-05-28T21:27:44.560Z,0
2017-05-28T21:28:53.802Z,0
2017-05-28T21:30:02.741Z,0
2017-05-28T21:31:11.640Z,0
2017-05-28T21:32:20.865Z,0
2017-05-28T21:33:30.409Z,0
2017-05-28T21:34:39.660Z,0
2017-05-28T21:35:48.928Z,0
2017-05-28T21:36:57.819Z,0
2017-05-28T21:38:07.374Z,0
2017-05-28T21:39:16.919Z,0
2017-05-28T21:40:26.136Z,0
2017-05-28T21:41:35.183Z,0
2017-05-28T21:42:44.724Z,0
2017-05-28T21:43:53.941Z,0
2017-05-28T21:45:02.848Z,0
2017-05-28T21:46:11.740Z,0
2017-05-28T21:47:21.112Z,0
2017-05-28T21:48:30.658Z,0
2017-05-28T21:49:40.214Z,0
2017-05-28T21:50:49.108Z,0
2017-05-28T21:51:58.006Z,0
2017-05-28T21:53:07.386Z,0
2017-05-28T21:54:17.258Z,0
2017-05-28T21:55:26.157Z,0
2017-05-28T21:56:35.050Z,0
2017-05-28T21:57:43.947Z,0
2017-05-28T21:58:54.024Z,0
2017-05-28T22:00:03.239Z,0
2017-05-28T22:01:12.136Z,0
2017-05-28T22:02:21.027Z,0
2017-05-28T22:03:30.566Z,0
2017-05-28T22:04:39.864Z,0
2017-05-28T22:05:49.095Z,0
2017-05-28T22:06:57.985Z,0
2017-05-28T22:08:07.207Z,0
2017-05-28T22:09:17.079Z,0
2017-05-28T22:10:26.669Z,0
2017-05-28T22:11:35.901Z,0
2017-05-28T22:12:44.797Z,0
2017-05-28T22:13:53.691Z,0
2017-05-28T22:15:02.918Z,0
2017-05-28T22:16:11.919Z,0
2017-05-28T22:17:21.140Z,0
2017-05-28T22:18:30.685Z,0
2017-05-28T22:19:40.551Z,0
2017-05-28T22:20:49.452Z,0
2017-05-28T22:21:58.716Z,0
2017-05-28T22:23:08.259Z,0
2017-05-28T22:24:17.157Z,0
2017-05-28T22:25:26.390Z,0
2017-05-28T22:26:35.283Z,0
2017-05-28T22:27:44.278Z,0
2017-05-28T22:28:53.500Z,0
2017-05-28T22:30:02.717Z,0
2017-05-28T22:31:11.613Z,0
2017-05-28T22:32:20.507Z,0
2017-05-28T22:33:29.709Z,0
2017-05-28T22:34:38.925Z,0
2017-05-28T22:35:48.147Z,0
2017-05-28T22:36:57.365Z,0
2017-05-28T22:38:07.234Z,0
2017-05-28T22:39:16.700Z,0
2017-05-28T22:40:25.942Z,0
2017-05-28T22:41:34.832Z,0
2017-05-28T22:42:44.382Z,0
2017-05-28T22:43:53.932Z,0
2017-05-28T22:45:02.879Z,0
2017-05-28T22:46:11.772Z,0
2017-05-28T22:47:20.989Z,0
2017-05-28T22:48:30.274Z,0
2017-05-28T22:49:39.500Z,0
2017-05-28T22:50:48.539Z,0
2017-05-28T22:51:57.431Z,0
2017-05-28T22:53:06.977Z,0
2017-05-28T22:54:15.880Z,0
2017-05-28T22:55:24.777Z,0
2017-05-28T22:56:33.996Z,0
2017-05-28T22:57:43.216Z,0
2017-05-28T22:58:52.432Z,0
2017-05-28T23:00:01.653Z,0
2017-05-28T23:01:11.196Z,0
2017-05-28T23:02:20.102Z,0
2017-05-28T23:03:28.994Z,0
2017-05-28T23:04:37.882Z,0
2017-05-28T23:05:47.428Z,0
2017-05-28T23:06:56.321Z,0
2017-05-28T23:08:05.519Z,0
2017-05-28T23:09:14.409Z,0
2017-05-28T23:10:23.957Z,0
2017-05-28T23:11:32.853Z,0
2017-05-28T23:12:42.398Z,0
2017-05-28T23:13:51.398Z,0
2017-05-28T23:15:00.617Z,0
2017-05-28T23:16:09.505Z,0
2017-05-28T23:17:18.402Z,0
2017-05-28T23:18:27.711Z,0
2017-05-28T23:19:37.329Z,0
2017-05-28T23:20:46.221Z,0
2017-05-28T23:21:55.117Z,0
2017-05-28T23:23:04.011Z,0
2017-05-28T23:24:12.905Z,0
2017-05-28T23:25:22.278Z,0
2017-05-28T23:26:31.497Z,0
2017-05-28T23:27:40.390Z,0
2017-05-28T23:28:49.938Z,0
2017-05-28T23:29:59.151Z,0
2017-05-28T23:31:08.091Z,0
2017-05-28T23:32:16.986Z,0
2017-05-28T23:33:26.203Z,0
2017-05-28T23:34:35.105Z,0
2017-05-28T23:35:44.321Z,0
2017-05-28T23:36:53.512Z,0
2017-05-28T23:38:02.763Z,0
2017-05-28T23:39:11.983Z,0
2017-05-28T23:40:21.204Z,0
2017-05-28T23:41:30.105Z,0
2017-05-28T23:42:39.954Z,0
2017-05-28T23:43:49.179Z,0
2017-05-28T23:44:58.409Z,0
2017-05-28T23:46:07.626Z,0
2017-05-28T23:47:17.175Z,0
2017-05-28T23:48:26.868Z,0
2017-05-28T23:49:36.108Z,0
2017-05-28T23:50:45.326Z,0
2017-05-28T23:51:54.217Z,0
2017-05-28T23:53:03.109Z,0
2017-05-28T23:54:12.812Z,0
2017-05-28T23:55:22.681Z,0
2017-05-28T23:56:31.897Z,0
2017-05-28T23:57:41.115Z,0
2017-05-28T23:58:50.723Z,0
